Time,TemperatureF,DewpointF,PressureIn,WindDirection,WindDirectionDegrees,WindSpeedMPH,WindSpeedGustMPH,Humidity,HourlyPrecipIn,Conditions,Clouds,dailyrainin,SolarRadiationWatts/m^2,SoftwareType,DateUTC
2013-06-03 00:02:00,54.0,21.0,-100.00,East,94,3.0,6.0,27,0.00,,,0.00,0.000000,,2013-06-03 06:02:00,
2013-06-03 00:12:00,54.0,21.0,-100.00,East,94,3.0,6.0,27,0.00,,,0.00,0.000000,,2013-06-03 06:12:00,
2013-06-03 00:22:00,54.0,21.0,-100.00,East,94,3.0,6.0,27,0.00,,,0.00,0.000000,,2013-06-03 06:22:00,
2013-06-03 00:52:00,51.0,21.0,-100.00,NNE,12,2.0,3.0,31,0.00,,,0.00,0.000000,,2013-06-03 06:52:00,
2013-06-03 01:02:00,51.0,21.0,-100.00,NNE,12,2.0,3.0,31,0.00,,,0.00,0.000000,,2013-06-03 07:02:00,
2013-06-03 01:12:00,51.0,21.0,-100.00,NNE,12,2.0,3.0,31,0.00,,,0.00,0.000000,,2013-06-03 07:12:00,
2013-06-03 01:22:00,51.0,21.0,-100.00,NNE,12,2.0,3.0,31,0.00,,,0.00,0.000000,,2013-06-03 07:22:00,
2013-06-03 01:42:00,50.0,21.0,-100.00,ENE,70,2.0,4.0,32,0.00,,,0.00,0.000000,,2013-06-03 07:42:00,
2013-06-03 01:52:00,50.0,21.0,-100.00,ENE,70,2.0,4.0,32,0.00,,,0.00,0.000000,,2013-06-03 07:52:00,
2013-06-03 02:02:00,50.0,21.0,-100.00,ENE,70,2.0,4.0,32,0.00,,,0.00,0.000000,,2013-06-03 08:02:00,
2013-06-03 02:12:00,50.0,21.0,-100.00,ENE,70,2.0,4.0,32,0.00,,,0.00,0.000000,,2013-06-03 08:12:00,
2013-06-03 02:21:00,50.0,21.0,-100.00,ENE,70,2.0,4.0,32,0.00,,,0.00,0.000000,,2013-06-03 08:21:00,
2013-06-03 02:52:00,49.0,21.0,-100.00,ESE,123,2.0,2.0,33,0.00,,,-99.99,0.000000,,2013-06-03 08:52:00,
2013-06-03 03:02:00,49.0,21.0,-100.00,ESE,123,2.0,2.0,33,0.00,,,-99.99,0.000000,,2013-06-03 09:02:00,
2013-06-03 03:12:00,49.0,21.0,-100.00,ESE,123,2.0,2.0,33,0.00,,,-99.99,0.000000,,2013-06-03 09:12:00,
2013-06-03 03:22:00,49.0,21.0,-100.00,ESE,123,2.0,2.0,33,0.00,,,-99.99,0.000000,,2013-06-03 09:22:00,
2013-06-03 03:53:00,52.0,22.0,-100.00,SE,145,4.0,6.0,30,0.00,,,0.00,0.000000,,2013-06-03 09:53:00,
2013-06-03 04:02:00,52.0,22.0,-100.00,SE,145,4.0,6.0,30,0.00,,,0.00,0.000000,,2013-06-03 10:02:00,
2013-06-03 04:12:00,52.0,22.0,-100.00,SE,145,4.0,6.0,30,0.00,,,0.00,0.000000,,2013-06-03 10:12:00,
2013-06-03 04:22:00,52.0,22.0,-100.00,SE,145,4.0,6.0,30,0.00,,,0.00,0.000000,,2013-06-03 10:22:00,
2013-06-03 04:52:00,45.0,24.0,-100.00,NNE,24,2.0,7.0,43,0.00,,,0.00,0.000000,,2013-06-03 10:52:00,
2013-06-03 05:02:00,45.0,24.0,-100.00,NNE,24,2.0,7.0,43,0.00,,,0.00,0.000000,,2013-06-03 11:02:00,
2013-06-03 05:12:00,45.0,24.0,-100.00,NNE,24,2.0,7.0,43,0.00,,,0.00,0.000000,,2013-06-03 11:12:00,
2013-06-03 05:22:00,45.0,24.0,-100.00,NNE,24,2.0,7.0,43,0.00,,,0.00,0.000000,,2013-06-03 11:22:00,
2013-06-03 05:42:00,44.0,23.0,-100.00,North,8,2.0,4.0,43,0.00,,,0.00,0.000000,,2013-06-03 11:42:00,
2013-06-03 05:52:00,44.0,23.0,-100.00,North,8,2.0,4.0,43,0.00,,,0.00,0.000000,,2013-06-03 11:52:00,
2013-06-03 06:02:00,44.0,23.0,-100.00,North,8,2.0,4.0,43,0.00,,,0.00,0.000000,,2013-06-03 12:02:00,
2013-06-03 06:12:00,44.0,23.0,-100.00,North,8,2.0,4.0,43,0.00,,,0.00,0.000000,,2013-06-03 12:12:00,
2013-06-03 06:21:00,44.0,23.0,-100.00,North,8,2.0,4.0,43,0.00,,,0.00,0.000000,,2013-06-03 12:21:00,
2013-06-03 06:42:00,44.0,23.0,-100.00,East,91,2.0,3.0,43,0.00,,,0.00,1.000000,,2013-06-03 12:42:00,
2013-06-03 06:52:00,44.0,23.0,-100.00,East,91,2.0,3.0,43,0.00,,,0.00,1.000000,,2013-06-03 12:52:00,
2013-06-03 07:02:00,44.0,23.0,-100.00,East,91,2.0,3.0,43,0.00,,,0.00,1.000000,,2013-06-03 13:02:00,
2013-06-03 07:12:00,44.0,23.0,-100.00,East,91,2.0,3.0,43,0.00,,,0.00,1.000000,,2013-06-03 13:12:00,
2013-06-03 07:21:00,44.0,23.0,-100.00,East,91,2.0,3.0,43,0.00,,,0.00,1.000000,,2013-06-03 13:21:00,
2013-06-03 07:52:00,51.0,27.0,-100.00,ESE,106,2.0,3.0,39,-99.99,,,0.00,72.000000,,2013-06-03 13:52:00,
2013-06-03 08:02:00,51.0,27.0,-100.00,ESE,106,2.0,3.0,39,-99.99,,,0.00,72.000000,,2013-06-03 14:02:00,
2013-06-03 08:12:00,51.0,27.0,-100.00,ESE,106,2.0,3.0,39,-99.99,,,0.00,72.000000,,2013-06-03 14:12:00,
2013-06-03 08:22:00,51.0,27.0,-100.00,ESE,106,2.0,3.0,39,-99.99,,,0.00,72.000000,,2013-06-03 14:22:00,
2013-06-03 08:52:00,59.0,28.0,-100.00,ESE,115,3.0,5.0,31,0.00,,,-99.99,275.000000,,2013-06-03 14:52:00,
2013-06-03 09:02:00,59.0,28.0,-100.00,ESE,115,3.0,5.0,31,0.00,,,-99.99,275.000000,,2013-06-03 15:02:00,
2013-06-03 09:12:00,59.0,28.0,-100.00,ESE,115,3.0,5.0,31,0.00,,,-99.99,275.000000,,2013-06-03 15:12:00,
2013-06-03 09:22:00,59.0,28.0,-100.00,ESE,115,3.0,5.0,31,0.00,,,-99.99,275.000000,,2013-06-03 15:22:00,
2013-06-03 09:53:00,65.0,27.0,-100.00,South,182,8.0,13.0,24,0.00,,,0.00,488.000000,,2013-06-03 15:53:00,
2013-06-03 10:03:00,65.0,27.0,-100.00,South,182,8.0,13.0,24,0.00,,,0.00,488.000000,,2013-06-03 16:03:00,
2013-06-03 10:12:00,65.0,27.0,-100.00,South,182,8.0,13.0,24,0.00,,,0.00,488.000000,,2013-06-03 16:12:00,
2013-06-03 10:23:00,65.0,27.0,-100.00,South,182,8.0,13.0,24,0.00,,,0.00,488.000000,,2013-06-03 16:23:00,
2013-06-03 10:53:00,67.0,25.0,-100.00,SW,224,9.0,16.0,20,0.00,,,0.00,690.000000,,2013-06-03 16:53:00,
2013-06-03 11:02:00,67.0,25.0,-100.00,SW,224,9.0,16.0,20,0.00,,,0.00,690.000000,,2013-06-03 17:02:00,
2013-06-03 11:12:00,67.0,25.0,-100.00,SW,224,9.0,16.0,20,0.00,,,0.00,690.000000,,2013-06-03 17:12:00,
2013-06-03 11:22:00,67.0,25.0,-100.00,SW,224,9.0,16.0,20,0.00,,,0.00,690.000000,,2013-06-03 17:22:00,
2013-06-03 11:52:00,70.0,28.0,-100.00,WSW,241,9.0,19.0,21,0.00,,,0.00,892.000000,,2013-06-03 17:52:00,
2013-06-03 12:02:00,70.0,28.0,-100.00,WSW,241,9.0,19.0,21,0.00,,,0.00,892.000000,,2013-06-03 18:02:00,
2013-06-03 12:12:00,70.0,28.0,-100.00,WSW,241,9.0,19.0,21,0.00,,,0.00,892.000000,,2013-06-03 18:12:00,
2013-06-03 12:22:00,70.0,28.0,-100.00,WSW,241,9.0,19.0,21,0.00,,,0.00,892.000000,,2013-06-03 18:22:00,
2013-06-03 12:43:00,71.0,29.0,-100.00,SW,218,10.0,21.0,21,0.00,,,0.00,809.000000,,2013-06-03 18:43:00,
2013-06-03 12:52:00,71.0,29.0,-100.00,SW,218,10.0,21.0,21,0.00,,,0.00,809.000000,,2013-06-03 18:52:00,
2013-06-03 13:03:00,71.0,29.0,-100.00,SW,218,10.0,21.0,21,0.00,,,0.00,809.000000,,2013-06-03 19:03:00,
2013-06-03 13:12:00,71.0,29.0,-100.00,SW,218,10.0,21.0,21,0.00,,,0.00,809.000000,,2013-06-03 19:12:00,
2013-06-03 13:22:00,71.0,29.0,-100.00,SW,218,10.0,21.0,21,0.00,,,0.00,809.000000,,2013-06-03 19:22:00,
2013-06-03 13:42:00,70.0,29.0,-100.00,SW,234,11.0,24.0,22,0.00,,,0.00,985.000000,,2013-06-03 19:42:00,
2013-06-03 13:52:00,70.0,29.0,-100.00,SW,234,11.0,24.0,22,0.00,,,0.00,985.000000,,2013-06-03 19:52:00,
2013-06-03 14:02:00,70.0,29.0,-100.00,SW,234,11.0,24.0,22,0.00,,,0.00,985.000000,,2013-06-03 20:02:00,
2013-06-03 14:12:00,70.0,29.0,-100.00,SW,234,11.0,24.0,22,0.00,,,0.00,985.000000,,2013-06-03 20:12:00,
2013-06-03 14:22:00,70.0,29.0,-100.00,SW,234,11.0,24.0,22,0.00,,,0.00,985.000000,,2013-06-03 20:22:00,
2013-06-03 14:52:00,69.0,26.0,-100.00,SSW,207,19.0,38.0,20,0.00,,,0.00,992.000000,,2013-06-03 20:52:00,
2013-06-03 15:02:00,69.0,26.0,-100.00,SSW,207,19.0,38.0,20,0.00,,,0.00,992.000000,,2013-06-03 21:02:00,
2013-06-03 15:12:00,69.0,26.0,-100.00,SSW,207,19.0,38.0,20,0.00,,,0.00,992.000000,,2013-06-03 21:12:00,
2013-06-03 15:22:00,69.0,26.0,-100.00,SSW,207,19.0,38.0,20,0.00,,,0.00,992.000000,,2013-06-03 21:22:00,
2013-06-03 15:53:00,70.0,25.0,-100.00,WSW,240,5.0,31.0,18,0.00,,,0.00,873.000000,,2013-06-03 21:53:00,
2013-06-03 16:03:00,70.0,25.0,-100.00,WSW,240,5.0,31.0,18,0.00,,,0.00,873.000000,,2013-06-03 22:03:00,
2013-06-03 16:12:00,70.0,25.0,-100.00,WSW,240,5.0,31.0,18,0.00,,,0.00,873.000000,,2013-06-03 22:12:00,
2013-06-03 16:22:00,70.0,25.0,-100.00,WSW,240,5.0,31.0,18,0.00,,,0.00,873.000000,,2013-06-03 22:22:00,
2013-06-03 16:42:00,69.0,25.0,-100.00,WSW,237,10.0,21.0,19,0.00,,,0.00,680.000000,,2013-06-03 22:42:00,
2013-06-03 16:53:00,69.0,25.0,-100.00,WSW,237,10.0,21.0,19,0.00,,,0.00,680.000000,,2013-06-03 22:53:00,
2013-06-03 17:02:00,69.0,25.0,-100.00,WSW,237,10.0,21.0,19,0.00,,,0.00,680.000000,,2013-06-03 23:02:00,
2013-06-03 17:12:00,69.0,25.0,-100.00,WSW,237,10.0,21.0,19,0.00,,,0.00,680.000000,,2013-06-03 23:12:00,
2013-06-03 17:22:00,69.0,25.0,-100.00,WSW,237,10.0,21.0,19,0.00,,,0.00,680.000000,,2013-06-03 23:22:00,
2013-06-03 17:52:00,71.0,23.0,-100.00,WSW,255,11.0,18.0,16,0.00,,,0.00,755.000000,,2013-06-03 23:52:00,
2013-06-03 18:02:00,71.0,23.0,-100.00,WSW,255,11.0,18.0,16,0.00,,,0.00,755.000000,,2013-06-04 00:02:00,
2013-06-03 18:12:00,71.0,23.0,-100.00,WSW,255,11.0,18.0,16,0.00,,,0.00,755.000000,,2013-06-04 00:12:00,
2013-06-03 18:21:00,71.0,23.0,-100.00,WSW,255,11.0,18.0,16,0.00,,,0.00,755.000000,,2013-06-04 00:21:00,
2013-06-03 18:52:00,72.0,25.0,-100.00,South,187,9.0,15.0,17,0.00,,,0.00,490.000000,,2013-06-04 00:52:00,
2013-06-03 19:02:00,72.0,25.0,-100.00,South,187,9.0,15.0,17,0.00,,,0.00,490.000000,,2013-06-04 01:02:00,
2013-06-03 19:12:00,72.0,25.0,-100.00,South,187,9.0,15.0,17,0.00,,,0.00,490.000000,,2013-06-04 01:12:00,
2013-06-03 19:22:00,72.0,25.0,-100.00,South,187,9.0,15.0,17,0.00,,,0.00,490.000000,,2013-06-04 01:22:00,
2013-06-03 19:52:00,69.0,25.0,-100.00,SW,219,3.0,12.0,19,0.00,,,0.00,217.000000,,2013-06-04 01:52:00,
2013-06-03 20:02:00,69.0,25.0,-100.00,SW,219,3.0,12.0,19,0.00,,,0.00,217.000000,,2013-06-04 02:02:00,
2013-06-03 20:12:00,69.0,25.0,-100.00,SW,219,3.0,12.0,19,0.00,,,0.00,217.000000,,2013-06-04 02:12:00,
2013-06-03 20:21:00,69.0,25.0,-100.00,SW,219,3.0,12.0,19,0.00,,,0.00,217.000000,,2013-06-04 02:21:00,
2013-06-03 20:52:00,68.0,22.0,-100.00,WSW,256,6.0,12.0,17,0.00,,,0.00,154.000000,,2013-06-04 02:52:00,
2013-06-03 21:02:00,68.0,22.0,-100.00,WSW,256,6.0,12.0,17,0.00,,,0.00,154.000000,,2013-06-04 03:02:00,
2013-06-03 21:12:00,68.0,22.0,-100.00,WSW,256,6.0,12.0,17,0.00,,,0.00,154.000000,,2013-06-04 03:12:00,
2013-06-03 21:22:00,68.0,22.0,-100.00,WSW,256,6.0,12.0,17,0.00,,,0.00,154.000000,,2013-06-04 03:22:00,
2013-06-03 21:43:00,62.0,20.0,-100.00,WSW,238,3.0,7.0,20,0.00,,,0.00,12.000000,,2013-06-04 03:43:00,
2013-06-03 21:53:00,62.0,20.0,-100.00,WSW,238,3.0,7.0,20,0.00,,,0.00,12.000000,,2013-06-04 03:53:00,
2013-06-03 22:02:00,62.0,20.0,-100.00,WSW,238,3.0,7.0,20,0.00,,,0.00,12.000000,,2013-06-04 04:02:00,
2013-06-03 22:13:00,62.0,20.0,-100.00,WSW,238,3.0,7.0,20,0.00,,,0.00,12.000000,,2013-06-04 04:13:00,
2013-06-03 22:22:00,62.0,20.0,-100.00,WSW,238,3.0,7.0,20,0.00,,,0.00,12.000000,,2013-06-04 04:22:00,
2013-06-03 22:53:00,51.0,24.0,-100.00,NW,315,3.0,6.0,34,0.00,,,0.00,0.000000,,2013-06-04 04:53:00,
2013-06-03 23:12:00,51.0,24.0,-100.00,NW,315,3.0,6.0,34,0.00,,,0.00,0.000000,,2013-06-04 05:12:00,
2013-06-03 23:22:00,51.0,24.0,-100.00,NW,315,3.0,6.0,34,0.00,,,0.00,0.000000,,2013-06-04 05:22:00,
2013-06-03 23:52:00,52.0,23.0,-100.00,NW,309,3.0,4.0,32,0.00,,,0.00,0.000000,,2013-06-04 05:52:00,